Terminal Aerodrome Forecast
Issued by NWS

Current Version | Previous Version | Text Only | Print | Product List | Glossary On
Versions: 1 2 3 4 5 6 7 8 9 10 11 12
000
FTUS43 KMPX 040520
TAFRWF
TAF
KRWF 040520Z 0406/0506 VRB04KT P6SM SCT050 BKN250
     FM041200 22005KT 6SM HZ BKN250
     FM042100 20008KT P6SM FEW070 SCT250=

USA.gov is the U.S. government's official web portal to all federal, state and local government web resources and services.